createdAt,value
2018-09-13T00:00:44.705Z,12.27
2018-09-13T00:03:11.957Z,11.10
2018-09-13T00:05:39.222Z,12.13
2018-09-13T00:08:06.443Z,11.50
2018-09-13T00:10:33.675Z,11.10
2018-09-13T00:13:01.007Z,11.30
2018-09-13T00:15:28.314Z,10.73
2018-09-13T00:17:55.873Z,11.80
2018-09-13T00:20:23.138Z,12.40
2018-09-13T00:22:50.358Z,11.73
2018-09-13T00:25:17.547Z,11.13
2018-09-13T00:27:44.766Z,11.10
2018-09-13T00:30:11.987Z,10.63
2018-09-13T00:32:39.352Z,10.97
2018-09-13T00:35:06.645Z,11.43
2018-09-13T00:37:33.921Z,12.07
2018-09-13T00:40:01.420Z,10.50
2018-09-13T00:42:28.832Z,10.50
2018-09-13T00:44:56.302Z,9.77
2018-09-13T00:47:23.736Z,11.10
2018-09-13T00:49:51.211Z,9.80
2018-09-13T00:52:18.791Z,10.83
2018-09-13T00:54:46.088Z,9.20
2018-09-13T00:57:13.567Z,10.90
2018-09-13T00:59:40.808Z,10.43
2018-09-13T01:02:08.051Z,11.23
2018-09-13T01:04:35.460Z,10.20
2018-09-13T01:07:02.625Z,10.43
2018-09-13T01:09:29.813Z,9.33
2018-09-13T01:11:57.126Z,10.23
2018-09-13T01:14:24.453Z,9.40
2018-09-13T01:16:51.912Z,9.40
2018-09-13T01:19:21.294Z,9.50
2018-09-13T01:21:49.218Z,8.73
2018-09-13T01:24:16.457Z,9.13
2018-09-13T01:26:43.759Z,9.67
2018-09-13T01:29:11.351Z,8.80
2018-09-13T01:31:38.626Z,9.47
2018-09-13T01:34:05.917Z,9.67
2018-09-13T01:36:33.258Z,8.80
2018-09-13T01:39:00.466Z,8.90
2018-09-13T01:41:27.676Z,8.50
2018-09-13T01:43:55.062Z,7.60
2018-09-13T01:46:22.667Z,8.60
2018-09-13T01:48:49.971Z,8.73
2018-09-13T01:51:17.259Z,8.37
2018-09-13T01:53:44.474Z,8.80
2018-09-13T01:56:11.965Z,8.03
2018-09-13T01:58:39.204Z,8.13
2018-09-13T02:01:06.504Z,9.13
2018-09-13T02:03:33.689Z,8.13
2018-09-13T02:06:01.110Z,8.57
2018-09-13T02:08:28.736Z,8.33
2018-09-13T02:10:56.122Z,9.70
2018-09-13T02:13:23.380Z,8.30
2018-09-13T02:15:50.693Z,8.90
2018-09-13T02:18:18.179Z,8.57
2018-09-13T02:20:45.639Z,9.33
2018-09-13T02:23:13.107Z,8.30
2018-09-13T02:25:40.283Z,8.70
2018-09-13T02:28:07.696Z,8.83
2018-09-13T02:30:34.865Z,9.47
2018-09-13T02:33:02.120Z,9.50
2018-09-13T02:35:29.338Z,9.23
2018-09-13T02:37:56.544Z,9.73
2018-09-13T02:40:23.809Z,8.90
2018-09-13T02:42:51.110Z,8.97
2018-09-13T02:45:18.312Z,9.10
2018-09-13T02:47:45.582Z,8.83
2018-09-13T02:50:12.966Z,9.33
2018-09-13T02:52:40.165Z,9.10
2018-09-13T02:55:07.382Z,9.33
2018-09-13T02:57:34.553Z,8.80
2018-09-13T03:00:02.426Z,9.60
2018-09-13T03:02:29.570Z,9.80
2018-09-13T03:04:56.762Z,8.43
2018-09-13T03:07:23.971Z,9.80
2018-09-13T03:09:51.816Z,9.00
2018-09-13T03:12:19.060Z,9.70
2018-09-13T03:14:46.254Z,9.53
2018-09-13T03:17:13.429Z,9.90
2018-09-13T03:19:40.625Z,9.80
2018-09-13T03:22:07.833Z,9.70
2018-09-13T03:24:35.033Z,9.17
2018-09-13T03:27:02.252Z,8.27
2018-09-13T03:29:29.869Z,9.40
2018-09-13T03:31:57.166Z,9.50
2018-09-13T03:34:24.355Z,9.47
2018-09-13T03:36:51.534Z,10.00
2018-09-13T03:39:19.038Z,8.80
2018-09-13T03:41:46.279Z,9.50
2018-09-13T03:44:13.473Z,9.30
2018-09-13T03:46:40.635Z,9.00
2018-09-13T03:49:07.847Z,9.27
2018-09-13T03:51:35.062Z,8.80
2018-09-13T03:54:02.250Z,9.17
2018-09-13T03:56:29.429Z,8.73
2018-09-13T03:58:56.811Z,8.20
2018-09-13T04:01:24.074Z,8.57
2018-09-13T04:03:51.530Z,8.80
2018-09-13T04:06:18.783Z,7.70
2018-09-13T04:08:46.055Z,8.73
2018-09-13T04:11:13.540Z,7.60
2018-09-13T04:13:41.086Z,6.73
2018-09-13T04:16:08.465Z,7.30
2018-09-13T04:18:35.878Z,5.87
2018-09-13T04:21:03.374Z,7.20
2018-09-13T04:23:30.662Z,7.57
2018-09-13T04:25:57.833Z,6.60
2018-09-13T04:28:25.073Z,6.90
2018-09-13T04:30:52.714Z,7.57
2018-09-13T04:33:20.403Z,7.10
2018-09-13T04:35:47.712Z,6.83
2018-09-13T04:38:14.979Z,6.90
2018-09-13T04:40:42.466Z,7.70
2018-09-13T04:43:09.892Z,7.40
2018-09-13T04:45:38.366Z,7.90
2018-09-13T04:48:05.567Z,7.30
2018-09-13T04:50:32.896Z,7.50
2018-09-13T04:53:00.154Z,7.80
2018-09-13T04:55:27.634Z,7.87
2018-09-13T04:57:54.809Z,7.97
2018-09-13T05:00:22.639Z,7.50
2018-09-13T05:02:50.054Z,8.00
2018-09-13T05:05:17.288Z,8.27
2018-09-13T05:07:44.590Z,9.63
2018-09-13T05:10:11.868Z,9.40
2018-09-13T05:12:39.037Z,9.00
2018-09-13T05:15:06.278Z,8.77
2018-09-13T05:17:34.269Z,9.20
2018-09-13T05:20:01.616Z,8.60
2018-09-13T05:22:28.825Z,8.90
2018-09-13T05:24:56.050Z,9.70
2018-09-13T05:27:23.568Z,9.33
2018-09-13T05:29:50.788Z,9.80
2018-09-13T05:32:18.035Z,10.23
2018-09-13T05:34:45.336Z,9.83
2018-09-13T05:37:12.749Z,9.80
2018-09-13T05:39:40.054Z,10.27
2018-09-13T05:42:07.304Z,10.77
2018-09-13T05:44:34.518Z,10.40
2018-09-13T05:47:01.990Z,11.97
2018-09-13T05:49:29.209Z,11.10
2018-09-13T05:51:56.554Z,11.97
2018-09-13T05:54:23.810Z,11.17
2018-09-13T05:56:51.719Z,10.93
2018-09-13T05:59:19.099Z,11.40
2018-09-13T06:01:46.448Z,11.57
2018-09-13T06:04:14.486Z,11.40
2018-09-13T06:06:42.950Z,12.87
2018-09-13T06:09:11.150Z,12.00
2018-09-13T06:11:38.894Z,11.50
2018-09-13T06:14:06.373Z,11.90
2018-09-13T06:16:33.935Z,10.93
2018-09-13T06:19:01.178Z,11.03
2018-09-13T06:21:28.886Z,11.40
2018-09-13T06:23:56.236Z,11.17
2018-09-13T06:26:23.421Z,11.77
2018-09-13T06:28:50.688Z,11.53
2018-09-13T06:31:17.909Z,11.30
2018-09-13T06:33:45.155Z,11.03
2018-09-13T06:36:12.486Z,11.20
2018-09-13T06:38:39.760Z,10.90
2018-09-13T06:41:06.983Z,10.90
2018-09-13T06:43:34.206Z,11.07
2018-09-13T06:46:01.591Z,10.53
2018-09-13T06:48:28.895Z,11.50
2018-09-13T06:50:56.207Z,10.10
2018-09-13T06:53:23.644Z,9.80
2018-09-13T06:55:51.186Z,10.53
2018-09-13T06:58:18.381Z,10.73
2018-09-13T07:00:45.839Z,10.70
2018-09-13T07:03:13.043Z,10.30
2018-09-13T07:05:40.587Z,10.87
2018-09-13T07:08:07.835Z,10.20
2018-09-13T07:10:35.478Z,10.93
2018-09-13T07:13:02.719Z,10.90
2018-09-13T07:15:30.215Z,10.30
2018-09-13T07:17:57.650Z,11.90
2018-09-13T07:20:24.891Z,11.50
2018-09-13T07:22:52.128Z,11.73
2018-09-13T07:25:19.304Z,12.17
2018-09-13T07:27:46.630Z,11.53
2018-09-13T07:30:13.850Z,11.53
2018-09-13T07:32:41.113Z,11.17
2018-09-13T07:35:08.437Z,10.97
2018-09-13T07:37:35.770Z,11.37
2018-09-13T07:40:03.267Z,11.40
2018-09-13T07:42:30.727Z,11.80
2018-09-13T07:44:57.862Z,11.60
2018-09-13T07:47:25.123Z,10.43
2018-09-13T07:49:52.488Z,11.70
2018-09-13T07:52:19.502Z,11.10
2018-09-13T07:54:46.925Z,10.10
2018-09-13T07:57:14.478Z,10.40
2018-09-13T07:59:41.665Z,9.70
2018-09-13T08:02:09.450Z,10.27
2018-09-13T08:04:36.825Z,11.07
2018-09-13T08:07:04.343Z,11.40
2018-09-13T08:09:31.771Z,11.83
2018-09-13T08:11:59.301Z,10.60
2018-09-13T08:14:26.718Z,10.20
2018-09-13T08:16:53.963Z,11.10
2018-09-13T08:19:21.249Z,10.63
2018-09-13T08:21:48.988Z,11.90
2018-09-13T08:24:16.163Z,11.23
2018-09-13T08:26:43.395Z,10.20
2018-09-13T08:29:10.650Z,10.20
2018-09-13T08:31:37.974Z,11.60
2018-09-13T08:34:05.183Z,12.67
2018-09-13T08:36:32.416Z,11.20
2018-09-13T08:38:59.627Z,13.00
2018-09-13T08:41:26.843Z,12.20
2018-09-13T08:43:54.119Z,12.80
2018-09-13T08:46:21.701Z,11.53
2018-09-13T08:48:52.018Z,10.50
2018-09-13T08:51:19.318Z,10.37
2018-09-13T08:53:46.986Z,12.00
2018-09-13T08:56:14.274Z,10.10
2018-09-13T08:58:41.541Z,9.87
2018-09-13T09:01:08.798Z,9.50
2018-09-13T09:03:36.328Z,10.30
2018-09-13T09:06:03.753Z,9.90
2018-09-13T09:08:31.786Z,9.63
2018-09-13T09:10:59.195Z,10.20
2018-09-13T09:13:26.775Z,9.40
2018-09-13T09:15:54.269Z,10.10
2018-09-13T09:18:21.474Z,9.53
2018-09-13T09:20:48.705Z,10.70
2018-09-13T09:23:15.961Z,9.57
2018-09-13T09:25:43.256Z,10.13
2018-09-13T09:28:10.488Z,10.13
2018-09-13T09:30:38.589Z,9.53
2018-09-13T09:33:06.138Z,8.97
2018-09-13T09:35:34.200Z,9.43
2018-09-13T09:38:01.543Z,8.60
2018-09-13T09:40:28.858Z,8.63
2018-09-13T09:42:56.178Z,8.73
2018-09-13T09:45:23.418Z,8.30
2018-09-13T09:47:50.618Z,8.03
2018-09-13T09:50:17.825Z,8.83
2018-09-13T09:52:45.099Z,8.07
2018-09-13T09:55:12.354Z,7.87
2018-09-13T09:57:40.258Z,7.93
2018-09-13T10:00:07.562Z,7.60
2018-09-13T10:02:34.797Z,8.23
2018-09-13T10:05:02.003Z,7.43
2018-09-13T10:07:29.245Z,8.07
2018-09-13T10:09:56.802Z,8.53
2018-09-13T10:12:23.985Z,8.23
2018-09-13T10:14:56.682Z,8.00
2018-09-13T10:17:29.216Z,8.70
2018-09-13T10:20:01.937Z,9.00
2018-09-13T10:22:34.453Z,8.47
2018-09-13T10:25:07.049Z,9.27
2018-09-13T10:27:39.728Z,10.00
2018-09-13T10:30:12.266Z,10.97
2018-09-13T10:32:44.986Z,10.00
2018-09-13T10:35:17.519Z,11.47
2018-09-13T10:37:50.061Z,9.70
2018-09-13T10:42:24.201Z,11.30
2018-09-13T10:44:56.923Z,10.70
2018-09-13T10:47:29.472Z,12.37
2018-09-13T10:50:36.454Z,10.80
2018-09-13T10:53:39.015Z,9.00
2018-09-13T10:56:06.600Z,10.63
2018-09-13T10:58:33.900Z,10.30
2018-09-13T11:01:01.618Z,10.87
2018-09-13T11:03:28.825Z,10.40
2018-09-13T11:05:56.143Z,10.87
2018-09-13T11:08:23.426Z,10.60
2018-09-13T11:10:50.988Z,10.07
2018-09-13T11:13:23.430Z,11.03
2018-09-13T11:15:50.756Z,10.60
2018-09-13T11:18:18.038Z,9.50
2018-09-13T11:20:45.365Z,10.40
2018-09-13T11:23:12.770Z,9.40
2018-09-13T11:25:41.015Z,10.07
2018-09-13T11:28:08.336Z,9.90
2018-09-13T11:30:35.684Z,8.90
2018-09-13T11:33:02.878Z,10.50
2018-09-13T11:35:30.211Z,10.10
2018-09-13T11:37:57.492Z,9.60
2018-09-13T11:40:25.020Z,9.60
2018-09-13T11:42:52.267Z,9.20
2018-09-13T11:45:19.538Z,9.83
2018-09-13T11:47:46.814Z,10.83
2018-09-13T11:50:14.136Z,11.40
2018-09-13T11:52:41.377Z,10.00
2018-09-13T11:55:08.821Z,9.30
2018-09-13T11:57:36.056Z,8.67
2018-09-13T12:00:03.389Z,9.20
2018-09-13T12:02:31.181Z,9.40
2018-09-13T12:04:58.454Z,10.37
2018-09-13T12:07:25.946Z,9.67
2018-09-13T12:09:53.350Z,9.03
2018-09-13T12:12:20.523Z,9.37
2018-09-13T12:14:47.807Z,9.33
2018-09-13T12:17:15.246Z,10.93
2018-09-13T12:19:42.694Z,11.03
2018-09-13T12:22:09.958Z,11.10
2018-09-13T12:24:37.607Z,9.33
2018-09-13T12:27:04.784Z,9.57
2018-09-13T12:29:32.018Z,12.03
2018-09-13T12:31:59.708Z,11.03
2018-09-13T12:34:26.911Z,10.60
2018-09-13T12:36:54.140Z,9.97
2018-09-13T12:39:21.368Z,9.50
2018-09-13T12:41:48.591Z,8.70
2018-09-13T12:44:15.824Z,10.17
2018-09-13T12:46:43.229Z,9.70
2018-09-13T12:49:10.781Z,9.60
2018-09-13T12:51:38.120Z,9.80
2018-09-13T12:54:05.542Z,9.90
2018-09-13T12:56:32.788Z,9.33
2018-09-13T12:59:00.159Z,8.10
2018-09-13T13:01:27.402Z,8.30
2018-09-13T13:03:54.677Z,9.83
2018-09-13T13:06:21.952Z,8.60
2018-09-13T13:08:49.215Z,8.37
2018-09-13T13:11:16.565Z,8.80
2018-09-13T13:13:43.744Z,8.13
2018-09-13T13:16:11.247Z,8.03
2018-09-13T13:18:38.565Z,8.63
2018-09-13T13:21:05.844Z,8.00
2018-09-13T13:23:33.202Z,9.23
2018-09-13T13:26:00.544Z,8.67
2018-09-13T13:28:27.859Z,8.57
2018-09-13T13:30:55.113Z,7.93
2018-09-13T13:33:22.378Z,7.23
2018-09-13T13:35:49.552Z,7.10
2018-09-13T13:38:16.814Z,7.60
2018-09-13T13:40:44.148Z,7.00
2018-09-13T13:43:11.757Z,6.90
2018-09-13T13:45:38.969Z,7.57
2018-09-13T13:48:06.228Z,6.60
2018-09-13T13:50:33.482Z,6.73
2018-09-13T13:53:00.719Z,7.57
2018-09-13T13:55:28.374Z,7.77
2018-09-13T13:57:56.524Z,7.50
2018-09-13T14:00:23.738Z,7.53
2018-09-13T14:02:51.047Z,7.60
2018-09-13T14:05:18.213Z,7.20
2018-09-13T14:07:45.809Z,7.67
2018-09-13T14:10:13.131Z,6.13
2018-09-13T14:12:40.321Z,6.87
2018-09-13T14:15:07.546Z,6.57
2018-09-13T14:17:34.854Z,6.43
2018-09-13T14:20:02.154Z,5.47
2018-09-13T14:22:29.515Z,6.53
2018-09-13T14:24:56.899Z,6.37
2018-09-13T14:27:24.155Z,6.70
2018-09-13T14:29:51.430Z,6.37
2018-09-13T14:32:18.775Z,6.50
2018-09-13T14:34:46.186Z,7.20
2018-09-13T14:37:13.410Z,7.57
2018-09-13T14:39:40.686Z,6.60
2018-09-13T14:42:07.914Z,6.70
2018-09-13T14:44:35.383Z,7.10
2018-09-13T14:47:02.656Z,6.93
2018-09-13T14:49:29.912Z,6.63
2018-09-13T14:51:57.136Z,6.80
2018-09-13T14:54:24.496Z,7.10
2018-09-13T14:56:52.337Z,7.00
2018-09-13T14:59:19.564Z,7.30
2018-09-13T15:01:46.957Z,7.07
2018-09-13T15:04:14.148Z,7.87
2018-09-13T15:06:41.444Z,6.50
2018-09-13T15:09:09.940Z,7.30
2018-09-13T15:11:37.534Z,7.20
2018-09-13T15:14:04.785Z,7.13
2018-09-13T15:16:32.039Z,6.20
2018-09-13T15:18:59.278Z,7.33
2018-09-13T15:21:26.561Z,6.80
2018-09-13T15:23:53.771Z,6.73
2018-09-13T15:26:21.052Z,7.23
2018-09-13T15:28:48.281Z,7.30
2018-09-13T15:31:15.633Z,6.83
2018-09-13T15:33:42.829Z,7.37
2018-09-13T15:36:10.302Z,6.50
2018-09-13T15:38:37.553Z,6.83
2018-09-13T15:41:04.716Z,7.70
2018-09-13T15:43:31.906Z,7.17
2018-09-13T15:45:59.139Z,6.30
2018-09-13T15:48:26.360Z,6.20
2018-09-13T15:50:53.639Z,6.70
2018-09-13T15:53:20.928Z,6.27
2018-09-13T15:55:48.153Z,6.80
2018-09-13T15:58:15.638Z,6.90
2018-09-13T16:00:42.925Z,6.33
2018-09-13T16:03:10.272Z,7.30
2018-09-13T16:05:37.502Z,6.67
2018-09-13T16:08:04.866Z,6.03
2018-09-13T16:10:32.183Z,6.67
2018-09-13T16:13:00.040Z,5.73
2018-09-13T16:15:27.300Z,6.90
2018-09-13T16:17:54.531Z,6.03
2018-09-13T16:20:21.893Z,6.97
2018-09-13T16:22:49.134Z,6.73
2018-09-13T16:25:16.692Z,6.47
2018-09-13T16:27:43.928Z,6.60
2018-09-13T16:30:11.318Z,6.53
2018-09-13T16:32:38.563Z,6.93
2018-09-13T16:35:06.488Z,6.47
2018-09-13T16:37:39.209Z,6.40
2018-09-13T16:40:11.850Z,6.53
2018-09-13T16:42:48.715Z,6.90
2018-09-13T16:45:16.262Z,6.40
2018-09-13T16:47:49.041Z,6.23
2018-09-13T16:50:16.251Z,7.10
2018-09-13T16:52:43.502Z,6.70
2018-09-13T16:55:10.723Z,6.17
2018-09-13T16:57:37.923Z,6.43
2018-09-13T17:00:05.275Z,6.97
2018-09-13T17:02:32.633Z,6.47
2018-09-13T17:04:59.836Z,6.73
2018-09-13T17:07:27.221Z,6.60
2018-09-13T17:09:54.509Z,6.10
2018-09-13T17:12:21.799Z,7.00
2018-09-13T17:14:49.016Z,6.90
2018-09-13T17:17:16.519Z,6.93
2018-09-13T17:19:43.723Z,6.73
2018-09-13T17:22:11.270Z,8.23
2018-09-13T17:24:38.603Z,8.10
2018-09-13T17:27:05.940Z,7.57
2018-09-13T17:29:34.456Z,7.83
2018-09-13T17:32:01.699Z,8.00
2018-09-13T17:34:28.925Z,8.07
2018-09-13T17:36:56.337Z,7.57
2018-09-13T17:39:23.578Z,7.07
2018-09-13T17:41:50.855Z,8.60
2018-09-13T17:44:18.291Z,8.27
2018-09-13T17:46:45.541Z,7.47
2018-09-13T17:49:12.803Z,7.47
2018-09-13T17:51:41.044Z,7.40
2018-09-13T17:54:08.271Z,7.50
2018-09-13T17:56:35.571Z,6.33
2018-09-13T17:59:02.872Z,7.87
2018-09-13T18:01:30.116Z,6.40
2018-09-13T18:03:57.347Z,6.90
2018-09-13T18:06:24.597Z,7.40
2018-09-13T18:08:52.017Z,7.60
2018-09-13T18:11:19.599Z,7.07
2018-09-13T18:13:46.861Z,6.47
2018-09-13T18:16:14.101Z,6.90
2018-09-13T18:18:41.354Z,7.27
2018-09-13T18:21:08.542Z,6.67
2018-09-13T18:23:35.856Z,6.67
2018-09-13T18:26:03.112Z,7.20
2018-09-13T18:28:30.415Z,6.63
2018-09-13T18:30:57.748Z,6.80
2018-09-13T18:33:25.178Z,6.90
2018-09-13T18:35:52.441Z,7.13
2018-09-13T18:38:19.650Z,6.33
2018-09-13T18:40:47.029Z,6.40
2018-09-13T18:43:14.328Z,6.40
2018-09-13T18:45:41.653Z,6.30
2018-09-13T18:48:08.946Z,7.00
2018-09-13T19:34:11.085Z,6.00
2018-09-13T19:36:38.556Z,5.70
2018-09-13T19:39:07.569Z,5.93
2018-09-13T19:41:35.217Z,5.60
2018-09-13T19:44:02.631Z,5.47
2018-09-13T19:46:29.989Z,5.83
2018-09-13T19:48:57.283Z,6.00
2018-09-13T19:51:24.640Z,5.60
2018-09-13T19:53:51.854Z,6.03
2018-09-13T19:56:19.182Z,5.43
2018-09-13T19:58:46.421Z,5.80
2018-09-13T20:01:13.727Z,5.40
2018-09-13T20:03:41.046Z,6.17
2018-09-13T20:06:08.304Z,7.60
2018-09-13T20:08:35.530Z,7.97
2018-09-13T20:11:02.901Z,7.30
2018-09-13T20:13:30.177Z,7.00
2018-09-13T20:15:57.478Z,7.20
2018-09-13T20:18:24.967Z,7.60
2018-09-13T20:20:52.121Z,8.43
2018-09-13T20:23:19.483Z,7.80
2018-09-13T20:25:47.451Z,8.70
2018-09-13T20:28:14.833Z,8.80
2018-09-13T20:30:42.114Z,8.60
2018-09-13T20:33:09.583Z,8.50
2018-09-13T20:35:36.775Z,8.50
2018-09-13T20:38:04.054Z,8.90
2018-09-13T20:40:31.353Z,9.07
2018-09-13T20:42:58.576Z,9.50
2018-09-13T20:45:25.884Z,9.37
2018-09-13T20:47:53.090Z,8.13
2018-09-13T20:50:22.879Z,7.80
2018-09-13T20:52:50.252Z,8.27
2018-09-13T20:55:18.136Z,7.63
2018-09-13T20:57:45.711Z,7.33
2018-09-13T21:00:17.851Z,7.50
2018-09-13T21:02:45.201Z,7.67
2018-09-13T21:05:12.512Z,7.23
2018-09-13T21:07:39.758Z,6.37
2018-09-13T21:10:07.223Z,6.40
2018-09-13T21:12:34.563Z,6.20
2018-09-13T21:15:01.878Z,5.40
2018-09-13T21:17:29.240Z,5.20
2018-09-13T21:19:56.755Z,5.50
2018-09-13T21:22:24.369Z,5.10
2018-09-13T21:24:51.585Z,5.20
2018-09-13T21:27:18.883Z,5.37
2018-09-13T21:29:46.181Z,4.90
2018-09-13T21:32:13.664Z,4.73
2018-09-13T21:34:40.952Z,4.70
2018-09-13T21:37:08.240Z,4.53
2018-09-13T21:39:35.527Z,5.03
2018-09-13T21:42:02.807Z,4.97
2018-09-13T21:44:30.078Z,4.93
2018-09-13T21:46:58.048Z,4.77
2018-09-13T21:49:25.433Z,5.60
2018-09-13T21:51:52.945Z,4.97
2018-09-13T21:54:20.167Z,4.83
2018-09-13T21:56:47.554Z,5.17
2018-09-13T21:59:15.601Z,4.47
2018-09-13T22:01:43.397Z,5.27
2018-09-13T22:04:10.630Z,5.73
2018-09-13T22:06:38.179Z,6.10
2018-09-13T22:09:08.873Z,5.60
2018-09-13T22:11:36.916Z,6.20
2018-09-13T22:14:04.649Z,6.30
2018-09-13T22:16:32.136Z,6.57
2018-09-13T22:18:59.366Z,6.53
2018-09-13T22:21:26.720Z,6.63
2018-09-13T22:23:54.343Z,7.80
2018-09-13T22:26:21.537Z,6.77
2018-09-13T22:28:48.762Z,6.70
2018-09-13T22:31:16.136Z,6.60
2018-09-13T22:33:43.386Z,7.13
2018-09-13T22:36:10.632Z,6.57
2018-09-13T22:38:37.894Z,6.33
2018-09-13T22:41:05.396Z,7.23
2018-09-13T22:43:37.999Z,6.37
2018-09-13T22:46:05.202Z,6.03
2018-09-13T22:48:32.637Z,7.00
2018-09-13T22:50:59.891Z,6.20
2018-09-13T22:53:27.241Z,5.90
2018-09-13T22:55:56.112Z,6.80
2018-09-13T22:58:23.442Z,6.23
2018-09-13T23:00:54.989Z,6.47
2018-09-13T23:03:22.192Z,6.13
2018-09-13T23:05:49.438Z,6.50
2018-09-13T23:08:16.637Z,6.37
2018-09-13T23:10:43.850Z,6.40
2018-09-13T23:13:11.098Z,6.27
2018-09-13T23:15:38.549Z,5.80
2018-09-13T23:18:05.722Z,7.10
2018-09-13T23:20:33.011Z,6.20
2018-09-13T23:23:00.397Z,7.03
2018-09-13T23:25:27.942Z,5.73
2018-09-13T23:27:55.174Z,6.57
2018-09-13T23:30:22.369Z,7.10
2018-09-13T23:32:49.578Z,6.23
2018-09-13T23:35:16.959Z,7.30
2018-09-13T23:37:44.366Z,7.40
2018-09-13T23:40:11.774Z,7.20
2018-09-13T23:42:39.018Z,6.90
2018-09-13T23:45:06.513Z,8.20
2018-09-13T23:47:33.728Z,6.73
2018-09-13T23:50:00.922Z,7.97
2018-09-13T23:52:28.111Z,7.50
2018-09-13T23:54:55.331Z,8.10
2018-09-13T23:57:22.604Z,8.03
2018-09-13T23:59:49.789Z,8.30
